Fairfield, Vermont
Current Conditions -  °F | °C
As of 7:55 AM on Saturday 25 Oct 2014 (Local Time) from KFSO Reporting Station
Clear Clear  
Wind Chill: 41°   Ceiling: Unl
Heat Index: 41°   Visibility: 10mi
Dew Point: 38°   Wind: 3mph
Humidity: 91%   Direction: 170°S
Pressure: 29.76"   Gusts: NA
Location:  44.8°N, 72.95°W
Report Text: KFSO 251155Z AUTO 17003KT 10SM CLR 05/04 A2976 RMK AO2 T00500036 10056 20030
Loading
Personal Weather Stations






























Interactive Weather Map
Tropical Storm Tracking
New forecast layout! Learn more

10-Day Weather Forecast

Advertisements
Track Severe Weather on mobile